Time;durP1;ratioP1;P1;durP2;ratioP2;P2;SDS_P1;SDS_P2;PMS_P1;PMS_P2;Temp;Humidity;BMP_temperature;BMP_pressure;BME280_temperature;BME280_humidity;BME280_pressure;Samples;Min_cycle;Max_cycle;Signal;HPM_P1;HPM_P2
2022/06/29 00:01:49;;;;;;;10.25;4.03;;;15.70;99.90;;;;;;5016549;28;20052;-79
2022/06/29 00:04:14;;;;;;;8.60;3.78;;;15.70;99.90;;;;;;5016752;28;20037;-79
2022/06/29 00:06:40;;;;;;;7.97;3.53;;;15.70;99.90;;;;;;5049231;28;20051;-79
2022/06/29 00:09:07;;;;;;;8.88;3.70;;;15.70;99.90;;;;;;5033269;28;20049;-78
2022/06/29 00:11:32;;;;;;;9.80;3.97;;;15.70;99.90;;;;;;5017159;28;20051;-79
2022/06/29 00:13:58;;;;;;;8.10;3.70;;;15.70;99.90;;;;;;5036704;28;20040;-78
2022/06/29 00:16:24;;;;;;;9.90;3.97;;;15.70;99.90;;;;;;5035760;28;20040;-79
2022/06/29 00:18:49;;;;;;;9.23;3.90;;;15.60;99.90;;;;;;5019945;28;20040;-79
2022/06/29 00:21:15;;;;;;;9.90;4.03;;;15.60;99.90;;;;;;5052522;28;20380;-79
2022/06/29 00:23:41;;;;;;;8.20;3.85;;;15.60;99.90;;;;;;5036272;28;20044;-79
2022/06/29 00:26:07;;;;;;;8.60;3.70;;;15.60;99.90;;;;;;5052321;28;20097;-78
2022/06/29 00:28:33;;;;;;;8.40;3.47;;;15.60;99.90;;;;;;5052782;28;20078;-79
2022/06/29 00:30:58;;;;;;;9.45;3.67;;;15.60;99.90;;;;;;5066657;28;20087;-78
2022/06/29 00:33:24;;;;;;;8.63;3.67;;;15.50;99.90;;;;;;5046095;28;20124;-78
2022/06/29 00:35:50;;;;;;;8.18;3.92;;;15.50;99.90;;;;;;5022520;28;20484;-79
2022/06/29 00:38:15;;;;;;;8.65;3.60;;;15.50;99.90;;;;;;5001056;28;20049;-79
2022/06/29 00:40:41;;;;;;;9.30;3.92;;;15.50;99.90;;;;;;5007100;28;20049;-79
2022/06/29 00:43:07;;;;;;;8.32;3.83;;;15.50;99.90;;;;;;5015687;28;20044;-79
2022/06/29 00:45:33;;;;;;;8.50;4.10;;;15.50;99.90;;;;;;5015977;28;20033;-80
2022/06/29 00:47:58;;;;;;;11.65;3.85;;;15.40;99.90;;;;;;5020614;28;20036;-80
2022/06/29 00:50:31;;;;;;;9.10;4.18;;;15.40;99.90;;;;;;5026107;28;20372;-79
2022/06/29 00:53:03;;;;;;;9.07;3.88;;;15.30;99.90;;;;;;5048611;28;20091;-80
2022/06/29 00:55:31;;;;;;;9.50;3.55;;;15.30;99.90;;;;;;5065997;28;20040;-80
2022/06/29 00:58:00;;;;;;;8.07;3.80;;;15.30;99.90;;;;;;5068358;28;20576;-79
2022/06/29 01:00:26;;;;;;;11.48;4.03;;;15.30;99.90;;;;;;5052280;28;20048;-79
2022/06/29 01:02:52;;;;;;;9.68;3.90;;;15.20;99.90;;;;;;5051728;28;20051;-80
2022/06/29 01:05:18;;;;;;;8.15;3.97;;;15.20;99.90;;;;;;5035471;28;20040;-79
2022/06/29 01:07:44;;;;;;;8.70;4.05;;;15.20;99.90;;;;;;5035180;28;20036;-80
2022/06/29 01:10:10;;;;;;;9.00;3.80;;;15.20;99.90;;;;;;5051951;28;20052;-79
2022/06/29 01:12:36;;;;;;;9.35;4.00;;;15.20;99.90;;;;;;5019436;28;20047;-79
2022/06/29 01:15:02;;;;;;;8.80;3.80;;;15.20;99.90;;;;;;5032411;28;20045;-79
2022/06/29 01:17:28;;;;;;;9.85;4.68;;;15.20;99.90;;;;;;5031167;28;20064;-79
2022/06/29 01:19:54;;;;;;;9.68;4.05;;;15.20;99.90;;;;;;5048562;28;20041;-80
2022/06/29 01:22:22;;;;;;;9.48;4.03;;;15.20;99.90;;;;;;5031779;28;20106;-79
2022/06/29 01:24:50;;;;;;;9.30;4.15;;;15.20;99.90;;;;;;5048091;28;20052;-79
2022/06/29 01:27:17;;;;;;;8.88;4.00;;;15.20;99.90;;;;;;5032180;28;20399;-79
2022/06/29 01:29:43;;;;;;;11.38;4.63;;;15.10;99.90;;;;;;5031178;28;20054;-80
2022/06/29 01:32:10;;;;;;;11.77;4.40;;;15.10;99.90;;;;;;4998783;28;20045;-79
2022/06/29 01:34:36;;;;;;;8.82;4.18;;;15.20;99.90;;;;;;5018990;28;20044;-79
2022/06/29 01:37:03;;;;;;;10.13;4.22;;;15.10;99.90;;;;;;5051057;28;20559;-78
2022/06/29 01:39:30;;;;;;;10.13;4.40;;;15.20;99.90;;;;;;5035011;28;20060;-78
2022/06/29 01:41:56;;;;;;;9.55;4.32;;;15.20;99.90;;;;;;5018074;28;20037;-78
2022/06/29 01:44:22;;;;;;;9.68;4.40;;;15.20;99.90;;;;;;5067746;28;20044;-78
2022/06/29 01:46:48;;;;;;;10.40;4.65;;;15.20;99.90;;;;;;5034143;28;20281;-78
2022/06/29 01:49:13;;;;;;;10.98;4.15;;;15.20;99.90;;;;;;5067971;28;20049;-78
2022/06/29 01:51:39;;;;;;;10.25;4.30;;;15.30;99.90;;;;;;5050917;28;20437;-78
2022/06/29 01:54:06;;;;;;;8.95;4.13;;;15.20;99.90;;;;;;5047929;28;20064;-78
2022/06/29 01:56:32;;;;;;;10.52;4.40;;;15.30;99.90;;;;;;5014344;28;20073;-78
2022/06/29 01:58:57;;;;;;;9.93;4.57;;;15.30;99.90;;;;;;5031367;28;20087;-78
2022/06/29 02:01:23;;;;;;;9.20;4.30;;;15.30;99.90;;;;;;5030491;28;20103;-78
2022/06/29 02:03:50;;;;;;;7.90;4.03;;;15.40;99.90;;;;;;5014730;28;20040;-78
2022/06/29 02:06:16;;;;;;;9.18;4.20;;;15.40;99.90;;;;;;5017554;28;20436;-78
2022/06/29 02:08:43;;;;;;;9.65;4.70;;;15.40;99.90;;;;;;5030997;28;20143;-78
2022/06/29 02:11:09;;;;;;;8.75;4.40;;;15.40;99.90;;;;;;5030626;28;20095;-78
2022/06/29 02:13:35;;;;;;;11.65;4.70;;;15.40;99.90;;;;;;5030834;28;20476;-79
2022/06/29 02:16:00;;;;;;;10.77;4.65;;;15.40;99.90;;;;;;4997929;28;20055;-79
2022/06/29 02:18:26;;;;;;;9.75;4.47;;;15.40;99.90;;;;;;4997771;28;20064;-79
2022/06/29 02:20:52;;;;;;;9.35;4.85;;;15.40;99.90;;;;;;5014109;28;20067;-78
2022/06/29 02:23:18;;;;;;;10.38;4.55;;;15.40;99.90;;;;;;5030834;28;20049;-78
2022/06/29 02:25:44;;;;;;;11.48;4.22;;;15.40;99.90;;;;;;5030466;28;20179;-78
2022/06/29 02:28:09;;;;;;;9.50;4.47;;;15.40;99.90;;;;;;5014205;28;20065;-78
2022/06/29 02:36:04;;;;;;;11.10;4.95;;;15.40;99.90;;;;;;5055399;28;20463;-78
2022/06/29 02:38:30;;;;;;;10.23;5.18;;;15.40;99.90;;;;;;5067541;28;20355;-78
2022/06/29 02:40:55;;;;;;;10.73;4.70;;;15.40;99.90;;;;;;5067099;28;20118;-78
2022/06/29 02:43:21;;;;;;;8.55;4.55;;;15.40;99.90;;;;;;5033644;28;20498;-78
2022/06/29 02:45:47;;;;;;;9.57;4.32;;;15.40;99.90;;;;;;5017235;28;20036;-79
2022/06/29 02:48:13;;;;;;;9.93;5.18;;;15.40;99.90;;;;;;5040977;28;20147;-78
2022/06/29 02:50:38;;;;;;;10.23;4.55;;;15.40;99.90;;;;;;5013365;28;20044;-78
2022/06/29 02:53:04;;;;;;;12.20;4.68;;;15.40;99.90;;;;;;5047350;28;20121;-78
2022/06/29 02:55:30;;;;;;;9.35;4.78;;;15.40;99.90;;;;;;5026259;28;20051;-78
2022/06/29 02:57:55;;;;;;;8.48;4.43;;;15.40;99.90;;;;;;5022174;28;20406;-78
2022/06/29 03:00:21;;;;;;;10.10;4.85;;;15.50;99.90;;;;;;5048308;28;20036;-79
2022/06/29 03:02:47;;;;;;;9.80;4.60;;;15.40;99.90;;;;;;5033323;28;20036;-78
2022/06/29 03:05:12;;;;;;;8.57;4.55;;;15.40;99.90;;;;;;5033798;28;20037;-78
2022/06/29 03:07:38;;;;;;;9.25;4.82;;;15.40;99.90;;;;;;5066732;28;20363;-78
2022/06/29 03:10:04;;;;;;;10.57;4.95;;;15.40;99.90;;;;;;5033577;28;20051;-78
2022/06/29 03:12:30;;;;;;;9.88;4.85;;;15.40;99.90;;;;;;5040952;28;20124;-78
2022/06/29 03:14:56;;;;;;;9.02;4.85;;;15.40;99.90;;;;;;5030599;28;20132;-78
2022/06/29 03:17:22;;;;;;;11.38;5.22;;;15.30;99.90;;;;;;5029666;28;20068;-78
2022/06/29 03:19:47;;;;;;;10.32;5.03;;;15.30;99.90;;;;;;5030700;28;20112;-78
2022/06/29 03:22:13;;;;;;;14.70;5.50;;;15.30;99.90;;;;;;4997115;28;20444;-78
2022/06/29 03:24:39;;;;;;;12.00;5.43;;;15.30;99.90;;;;;;5047145;28;20154;-79
2022/06/29 03:27:05;;;;;;;9.63;5.00;;;15.30;99.90;;;;;;5036472;28;20122;-79
2022/06/29 03:29:31;;;;;;;10.43;5.47;;;15.30;99.90;;;;;;5030164;28;20037;-79
2022/06/29 03:31:57;;;;;;;9.65;5.50;;;15.30;99.90;;;;;;5046422;28;20048;-78
2022/06/29 03:34:22;;;;;;;10.30;5.28;;;15.30;99.90;;;;;;5013679;28;20513;-78
2022/06/29 03:36:48;;;;;;;12.50;6.00;;;15.30;99.90;;;;;;5013631;28;20075;-78
2022/06/29 03:39:14;;;;;;;10.88;5.38;;;15.20;99.90;;;;;;5046642;28;20513;-78
2022/06/29 03:41:40;;;;;;;9.68;5.50;;;15.20;99.90;;;;;;5046504;28;20284;-78
2022/06/29 03:44:05;;;;;;;11.85;5.60;;;15.20;99.90;;;;;;5030036;28;20048;-78
2022/06/29 03:46:31;;;;;;;10.82;5.55;;;15.20;99.90;;;;;;5029993;28;20033;-78
2022/06/29 03:48:57;;;;;;;10.68;5.63;;;15.20;99.90;;;;;;5046426;28;20505;-78
2022/06/29 03:51:23;;;;;;;13.27;5.70;;;15.20;99.90;;;;;;5029536;28;20110;-78
2022/06/29 03:53:48;;;;;;;10.48;5.32;;;15.10;99.90;;;;;;5037122;28;20513;-78
2022/06/29 03:56:14;;;;;;;9.40;5.35;;;15.10;99.90;;;;;;5052949;28;20494;-78
2022/06/29 03:58:40;;;;;;;8.90;5.20;;;15.10;99.90;;;;;;5037044;28;20041;-78
2022/06/29 04:01:06;;;;;;;10.98;5.47;;;15.20;99.90;;;;;;5053121;28;20028;-79
2022/06/29 04:03:32;;;;;;;11.30;5.60;;;15.20;99.90;;;;;;5053260;28;20105;-78
2022/06/29 04:05:57;;;;;;;9.27;5.05;;;15.20;99.90;;;;;;5060349;28;20044;-79
2022/06/29 04:08:23;;;;;;;11.18;5.78;;;15.20;99.90;;;;;;5019822;28;20047;-78
2022/06/29 04:10:49;;;;;;;9.70;5.25;;;15.20;99.90;;;;;;5038123;28;20432;-78
2022/06/29 04:13:14;;;;;;;12.65;6.30;;;15.30;99.90;;;;;;5034948;28;20036;-78
2022/06/29 04:15:41;;;;;;;10.10;5.57;;;15.30;99.90;;;;;;5036522;28;20051;-78
2022/06/29 04:18:06;;;;;;;10.88;5.60;;;15.30;99.90;;;;;;5069503;28;20099;-78
2022/06/29 04:23:18;;;;;;;9.75;5.35;;;15.30;99.90;;;;;;5055418;28;20063;-78
2022/06/29 04:25:43;;;;;;;9.73;5.57;;;15.30;99.90;;;;;;5052518;28;20048;-78
2022/06/29 04:28:09;;;;;;;10.63;5.60;;;15.40;99.90;;;;;;5036241;28;20046;-78
2022/06/29 04:30:35;;;;;;;10.55;5.68;;;15.40;99.90;;;;;;5069685;28;20041;-78
2022/06/29 04:33:00;;;;;;;10.68;5.93;;;15.40;99.90;;;;;;5052853;28;20059;-78
2022/06/29 04:35:26;;;;;;;11.63;5.97;;;15.40;99.90;;;;;;5052907;28;20515;-79
2022/06/29 04:37:52;;;;;;;9.10;5.38;;;15.40;99.90;;;;;;5035911;28;20170;-79
2022/06/29 04:40:18;;;;;;;10.65;6.20;;;15.50;99.90;;;;;;5019233;28;20033;-78
2022/06/29 04:42:43;;;;;;;10.65;5.45;;;15.50;99.90;;;;;;5068892;28;20544;-78
2022/06/29 04:46:19;;;;;;;10.40;6.03;;;15.50;99.90;;;;;;5052940;28;20046;-80
2022/06/29 04:47:59;;;;;;;10.95;6.40;;;15.60;99.90;;;;;;5061320;28;20040;-78
2022/06/29 04:50:26;;;;;;;11.38;6.18;;;15.60;99.90;;;;;;5032600;28;20577;-78
2022/06/29 04:52:52;;;;;;;12.55;6.13;;;15.60;99.90;;;;;;5016000;28;20036;-78
2022/06/29 04:55:17;;;;;;;9.07;5.50;;;15.70;99.90;;;;;;5015453;28;20044;-79
2022/06/29 04:57:43;;;;;;;10.15;6.15;;;15.70;99.90;;;;;;5035447;28;20057;-78
2022/06/29 05:00:09;;;;;;;10.80;5.78;;;15.70;99.90;;;;;;5069052;28;20041;-79
2022/06/29 05:02:35;;;;;;;13.80;6.25;;;15.80;99.90;;;;;;5019037;28;20090;-79
2022/06/29 05:05:01;;;;;;;10.32;6.20;;;15.80;99.90;;;;;;5067784;28;20036;-78
2022/06/29 05:07:27;;;;;;;11.20;5.97;;;15.80;99.90;;;;;;5051505;28;20040;-78
2022/06/29 05:09:52;;;;;;;10.25;6.30;;;15.90;99.90;;;;;;5032286;28;20110;-78
2022/06/29 05:12:18;;;;;;;14.27;6.00;;;15.90;99.90;;;;;;5032808;28;20112;-78
2022/06/29 05:14:44;;;;;;;11.57;6.55;;;16.20;99.90;;;;;;5032209;28;20487;-79
2022/06/29 05:17:09;;;;;;;9.82;6.28;;;16.00;99.90;;;;;;5015003;28;20076;-79
2022/06/29 05:19:35;;;;;;;10.65;5.88;;;16.10;99.90;;;;;;5038989;28;20041;-79
2022/06/29 05:22:01;;;;;;;12.10;6.18;;;16.10;99.90;;;;;;5031696;28;20045;-79
2022/06/29 05:24:27;;;;;;;10.48;6.22;;;16.20;99.90;;;;;;5015725;28;20045;-79
2022/06/29 05:26:52;;;;;;;10.77;6.25;;;16.20;99.90;;;;;;5059351;28;20506;-79
2022/06/29 05:29:18;;;;;;;11.77;6.60;;;16.30;99.90;;;;;;5017573;28;20183;-79
2022/06/29 05:31:44;;;;;;;12.13;6.22;;;16.30;99.90;;;;;;5048021;28;20532;-79
2022/06/29 05:34:10;;;;;;;12.38;6.53;;;16.30;99.90;;;;;;5015392;28;20049;-78
2022/06/29 05:36:35;;;;;;;11.23;5.68;;;16.40;99.90;;;;;;4998917;28;20041;-78
2022/06/29 05:39:01;;;;;;;11.98;6.18;;;16.50;99.90;;;;;;5031440;28;20088;-79
2022/06/29 05:41:27;;;;;;;11.80;6.35;;;16.50;99.90;;;;;;5014776;28;20048;-79
2022/06/29 05:43:53;;;;;;;10.68;5.13;;;16.60;99.90;;;;;;5048334;28;20037;-78
2022/06/29 05:46:20;;;;;;;10.68;5.78;;;16.60;99.90;;;;;;5014974;28;20076;-78
2022/06/29 05:48:46;;;;;;;11.15;6.55;;;16.70;99.90;;;;;;5031781;28;20456;-78
2022/06/29 05:51:11;;;;;;;10.50;6.07;;;16.70;99.90;;;;;;5031081;28;20051;-78
2022/06/29 05:53:37;;;;;;;10.27;6.25;;;16.80;99.90;;;;;;5033603;28;20060;-79
2022/06/29 05:56:03;;;;;;;9.38;6.03;;;16.80;99.90;;;;;;5034281;28;20047;-79
2022/06/29 05:58:29;;;;;;;12.13;6.25;;;16.90;99.90;;;;;;5034847;28;20047;-78
2022/06/29 06:00:54;;;;;;;12.20;6.22;;;16.90;99.90;;;;;;5034238;28;20107;-79
2022/06/29 06:03:20;;;;;;;10.82;6.07;;;17.00;99.90;;;;;;5051722;28;20044;-78
2022/06/29 06:05:46;;;;;;;11.40;6.18;;;17.20;99.90;;;;;;5045487;28;20521;-79
2022/06/29 06:08:13;;;;;;;9.63;5.70;;;17.30;99.90;;;;;;5031519;28;20041;-78
2022/06/29 06:10:39;;;;;;;10.57;5.28;;;17.50;99.90;;;;;;5044729;28;20040;-78
2022/06/29 06:13:08;;;;;;;8.55;4.70;;;17.60;99.90;;;;;;5031626;28;20032;-78
2022/06/29 06:15:34;;;;;;;9.38;4.57;;;17.80;99.90;;;;;;5031334;28;20395;-78
2022/06/29 06:18:01;;;;;;;11.57;4.63;;;18.00;99.90;;;;;;5014456;28;20060;-78
2022/06/29 06:20:28;;;;;;;9.35;4.30;;;18.20;99.90;;;;;;5014783;28;20095;-78
2022/06/29 06:22:55;;;;;;;8.40;4.45;;;18.40;99.90;;;;;;5047598;28;20112;-79
2022/06/29 06:25:20;;;;;;;8.18;3.85;;;18.50;99.90;;;;;;5014464;28;20042;-79
2022/06/29 06:27:46;;;;;;;9.32;4.30;;;18.70;99.90;;;;;;5030786;28;20668;-79
2022/06/29 06:30:12;;;;;;;8.90;4.43;;;18.80;99.90;;;;;;5014345;28;20045;-80
2022/06/29 06:32:38;;;;;;;9.07;4.40;;;18.90;99.90;;;;;;4998150;28;20048;-79
2022/06/29 06:35:05;;;;;;;9.30;4.32;;;19.10;99.90;;;;;;5014490;28;20467;-78
2022/06/29 06:37:30;;;;;;;8.82;3.70;;;19.20;99.90;;;;;;5014074;28;20056;-78
2022/06/29 06:42:40;;;;;;;7.60;2.90;;;19.50;99.90;;;;;;5032542;28;20041;-80
2022/06/29 06:45:07;;;;;;;7.38;2.80;;;19.70;99.90;;;;;;4998230;28;20059;-79
2022/06/29 06:47:33;;;;;;;7.25;2.75;;;19.90;99.90;;;;;;5018037;28;20033;-79
2022/06/29 06:49:58;;;;;;;7.93;2.80;;;20.00;99.90;;;;;;5035509;28;20036;-80
2022/06/29 06:52:24;;;;;;;7.68;2.90;;;20.10;99.90;;;;;;5013878;28;20350;-79
2022/06/29 06:54:50;;;;;;;8.85;2.80;;;20.20;99.90;;;;;;5024883;28;20077;-79
2022/06/29 06:57:16;;;;;;;7.25;2.67;;;20.40;99.90;;;;;;5013864;28;20124;-79
2022/06/29 06:59:41;;;;;;;7.10;2.70;;;20.50;99.90;;;;;;5030941;28;20095;-79
2022/06/29 07:02:07;;;;;;;8.60;2.80;;;20.60;99.90;;;;;;5030317;28;20547;-79
2022/06/29 07:04:33;;;;;;;7.60;2.58;;;20.70;99.90;;;;;;5030656;28;20527;-79
2022/06/29 07:06:58;;;;;;;7.65;2.60;;;20.80;99.90;;;;;;5046683;28;20037;-79
2022/06/29 07:09:24;;;;;;;6.55;2.50;;;20.90;99.90;;;;;;5059529;28;20072;-80
2022/06/29 07:11:50;;;;;;;8.10;2.47;;;21.10;99.90;;;;;;5017202;28;20048;-79
2022/06/29 07:14:16;;;;;;;8.82;2.67;;;21.10;99.90;;;;;;5067036;28;20532;-79
2022/06/29 07:16:42;;;;;;;8.02;2.75;;;21.20;99.90;;;;;;5049555;28;20507;-78
2022/06/29 07:19:08;;;;;;;7.70;2.50;;;21.20;99.90;;;;;;5050125;28;20064;-79
2022/06/29 07:21:34;;;;;;;6.22;2.25;;;21.40;99.90;;;;;;5030499;28;20127;-79
2022/06/29 07:23:59;;;;;;;6.75;2.20;;;21.40;99.90;;;;;;5013951;28;20037;-79
2022/06/29 07:26:26;;;;;;;6.82;2.17;;;21.60;99.90;;;;;;5034878;28;20045;-80
2022/06/29 07:28:52;;;;;;;10.07;2.78;;;21.70;99.90;;;;;;5017763;28;20044;-79
2022/06/29 07:31:18;;;;;;;8.23;2.45;;;21.70;99.90;;;;;;5034098;28;20406;-80
2022/06/29 07:33:44;;;;;;;7.35;2.78;;;21.80;99.90;;;;;;5034104;28;20119;-80
2022/06/29 07:36:10;;;;;;;7.65;2.15;;;21.80;99.90;;;;;;5017107;28;20119;-80
2022/06/29 07:38:36;;;;;;;8.63;2.30;;;22.00;99.90;;;;;;5017973;28;20112;-80
2022/06/29 07:41:02;;;;;;;6.43;2.10;;;22.10;99.90;;;;;;5017211;28;20037;-80
2022/06/29 07:43:28;;;;;;;8.02;2.17;;;22.10;99.90;;;;;;5033980;28;20048;-79
2022/06/29 07:45:57;;;;;;;7.70;2.10;;;22.30;99.90;;;;;;5033460;28;20045;-80
2022/06/29 07:48:24;;;;;;;6.65;2.13;;;22.40;99.90;;;;;;5001079;28;20483;-80
2022/06/29 07:50:50;;;;;;;6.28;2.10;;;22.50;99.90;;;;;;5017771;28;20112;-80
2022/06/29 07:53:16;;;;;;;6.10;2.17;;;22.60;99.90;;;;;;5050259;28;20045;-80
2022/06/29 07:55:44;;;;;;;6.75;2.17;;;22.70;99.90;;;;;;5025038;28;20522;-80
2022/06/29 07:58:15;;;;;;;6.65;2.25;;;22.80;99.90;;;;;;5050313;28;20117;-79
2022/06/29 08:00:41;;;;;;;7.80;2.20;;;22.90;99.90;;;;;;5017331;28;20048;-79
2022/06/29 08:03:08;;;;;;;7.07;2.20;;;22.90;99.90;;;;;;5033864;28;20110;-79
2022/06/29 08:05:34;;;;;;;6.70;2.17;;;23.00;99.90;;;;;;5039158;28;20059;-79
2022/06/29 08:08:01;;;;;;;7.25;2.20;;;23.00;99.90;;;;;;5039541;28;20087;-79
2022/06/29 08:10:26;;;;;;;6.60;2.17;;;23.20;99.90;;;;;;5070074;28;20044;-80
2022/06/29 08:12:52;;;;;;;5.55;2.10;;;23.20;99.90;;;;;;5069545;28;20388;-79
2022/06/29 08:15:19;;;;;;;6.45;2.25;;;23.20;99.90;;;;;;5053133;28;20051;-79
2022/06/29 08:17:45;;;;;;;7.38;2.30;;;23.30;99.90;;;;;;5051965;28;20425;-80
2022/06/29 08:20:11;;;;;;;5.90;2.10;;;23.40;99.90;;;;;;5069839;28;20040;-81
2022/06/29 08:22:37;;;;;;;6.97;2.15;;;23.50;99.90;;;;;;5052993;28;20043;-80
2022/06/29 08:25:03;;;;;;;7.30;2.00;;;23.60;99.90;;;;;;5037137;28;20037;-80
2022/06/29 08:27:31;;;;;;;8.43;2.10;;;23.70;99.90;;;;;;5069318;28;20040;-79
2022/06/29 08:29:57;;;;;;;7.65;2.20;;;23.80;99.90;;;;;;5053404;28;20059;-79
2022/06/29 08:32:23;;;;;;;7.50;2.22;;;23.90;99.90;;;;;;5036099;28;20045;-81
2022/06/29 08:34:49;;;;;;;7.45;2.22;;;24.00;99.90;;;;;;5052798;28;20090;-79
2022/06/29 08:37:15;;;;;;;7.03;1.95;;;24.10;99.90;;;;;;5035880;28;20037;-80
2022/06/29 08:39:41;;;;;;;6.38;2.00;;;24.20;99.90;;;;;;5052345;28;20044;-80
2022/06/29 08:42:07;;;;;;;6.10;2.20;;;24.40;99.90;;;;;;5035710;28;20048;-80
2022/06/29 08:44:37;;;;;;;5.60;2.22;;;24.50;99.90;;;;;;5048591;28;20044;-79
2022/06/29 08:47:10;;;;;;;7.50;2.20;;;24.60;99.90;;;;;;5032112;28;20075;-80
2022/06/29 08:49:39;;;;;;;8.30;2.30;;;24.60;99.90;;;;;;5051115;28;20048;-79
2022/06/29 08:52:07;;;;;;;6.30;2.00;;;24.70;99.90;;;;;;5048720;28;20041;-80
2022/06/29 08:54:41;;;;;;;6.10;2.10;;;24.70;99.90;;;;;;5038196;28;20380;-81
2022/06/29 08:57:08;;;;;;;6.60;2.00;;;24.60;99.90;;;;;;5032303;28;20071;-80
2022/06/29 08:59:37;;;;;;;6.72;2.10;;;24.50;99.90;;;;;;5015863;28;20049;-80
2022/06/29 09:02:04;;;;;;;6.43;2.10;;;24.50;99.90;;;;;;5032107;28;20463;-79
2022/06/29 09:04:30;;;;;;;5.30;2.10;;;24.50;99.90;;;;;;5032573;28;20120;-80
2022/06/29 09:06:57;;;;;;;5.28;1.90;;;24.60;99.90;;;;;;5015736;28;20187;-80
2022/06/29 09:09:23;;;;;;;5.55;1.90;;;24.60;99.90;;;;;;5066402;28;20074;-80
2022/06/29 09:11:51;;;;;;;5.20;1.98;;;24.80;99.90;;;;;;5052145;28;20267;-80
2022/06/29 09:14:28;;;;;;;7.47;2.20;;;24.90;99.90;;;;;;5052118;28;20128;-80
2022/06/29 09:16:56;;;;;;;6.35;2.20;;;25.20;99.90;;;;;;5051835;28;20044;-80
2022/06/29 09:19:25;;;;;;;8.02;2.17;;;25.30;99.90;;;;;;5063674;28;20056;-79
2022/06/29 09:21:53;;;;;;;7.90;2.00;;;25.40;99.90;;;;;;5048531;28;20295;-80
2022/06/29 09:24:21;;;;;;;6.60;1.88;;;25.50;99.90;;;;;;5032130;28;20033;-80
2022/06/29 09:26:56;;;;;;;6.47;1.90;;;25.60;99.90;;;;;;5058271;28;20105;-80
2022/06/29 09:29:32;;;;;;;5.60;2.10;;;25.70;99.90;;;;;;5049630;28;20076;-80
2022/06/29 09:32:04;;;;;;;7.18;2.13;;;25.70;99.90;;;;;;5031564;28;20052;-80
2022/06/29 09:34:39;;;;;;;5.70;1.92;;;25.70;99.90;;;;;;5038510;28;20055;-80
2022/06/29 09:37:07;;;;;;;5.32;2.00;;;25.90;99.90;;;;;;5051500;28;20044;-80
2022/06/29 09:39:37;;;;;;;5.85;1.92;;;25.80;99.90;;;;;;5068119;28;20044;-80
2022/06/29 09:42:08;;;;;;;5.95;1.90;;;25.80;99.90;;;;;;5067528;28;20032;-80
2022/06/29 09:44:34;;;;;;;5.03;1.90;;;25.80;99.90;;;;;;5051670;28;20094;-80
2022/06/29 09:47:05;;;;;;;5.38;1.98;;;25.70;99.90;;;;;;5067329;28;20037;-80
2022/06/29 09:49:33;;;;;;;5.47;2.17;;;25.70;99.90;;;;;;5047923;28;20041;-80
2022/06/29 09:52:00;;;;;;;5.78;2.17;;;25.80;99.90;;;;;;5047636;28;20071;-80
2022/06/29 09:54:45;;;;;;;5.68;1.80;;;25.80;99.90;;;;;;5050656;28;20037;-80
2022/06/29 09:57:12;;;;;;;7.20;2.03;;;26.00;99.90;;;;;;5047905;28;20047;-79
2022/06/29 10:02:40;;;;;;;6.30;2.00;;;25.90;99.90;;;;;;5047957;28;20442;-80
2022/06/29 10:05:17;;;;;;;6.75;2.05;;;25.80;99.90;;;;;;5033327;28;20048;-80
2022/06/29 10:07:51;;;;;;;6.80;1.92;;;25.90;99.90;;;;;;5043928;28;20029;-80
2022/06/29 10:10:27;;;;;;;5.95;2.00;;;26.00;99.90;;;;;;5031496;28;20495;-80
2022/06/29 10:16:07;;;;;;;6.57;2.03;;;26.10;99.90;;;;;;5047517;28;20676;-79
2022/06/29 10:18:46;;;;;;;7.65;1.98;;;26.00;99.90;;;;;;5030956;28;20049;-80
2022/06/29 10:21:20;;;;;;;4.50;1.90;;;26.20;99.90;;;;;;5030699;28;20483;-79
2022/06/29 10:23:53;;;;;;;5.57;2.15;;;26.10;99.90;;;;;;5031225;28;20095;-79
2022/06/29 10:26:32;;;;;;;6.85;2.22;;;26.40;99.90;;;;;;5047725;28;20116;-80
2022/06/29 10:29:10;;;;;;;7.90;2.20;;;26.50;99.90;;;;;;5047867;28;20061;-79
2022/06/29 10:31:51;;;;;;;5.63;2.10;;;26.60;99.90;;;;;;5030937;28;20076;-78
2022/06/29 10:34:32;;;;;;;8.20;2.03;;;26.90;99.90;;;;;;5039304;28;20067;-79
2022/06/29 10:37:16;;;;;;;4.93;1.90;;;27.10;99.90;;;;;;5050421;28;20409;-80
2022/06/29 10:39:45;;;;;;;5.38;2.10;;;27.10;99.90;;;;;;5051424;28;20438;-80
2022/06/29 10:45:18;;;;;;;7.45;2.33;;;27.10;99.90;;;;;;5067285;28;20045;-80
2022/06/29 10:47:57;;;;;;;5.63;2.00;;;26.90;99.90;;;;;;5033664;28;20039;-80
2022/06/29 10:50:28;;;;;;;5.47;1.85;;;26.90;99.90;;;;;;5033449;28;20045;-80
2022/06/29 10:52:57;;;;;;;5.47;2.00;;;26.90;99.90;;;;;;5030901;28;20357;-80
2022/06/29 10:55:28;;;;;;;5.18;2.00;;;27.00;99.90;;;;;;5060792;28;20442;-81
2022/06/29 10:57:54;;;;;;;6.85;2.00;;;26.90;99.90;;;;;;5047190;28;20117;-80
2022/06/29 11:00:29;;;;;;;6.38;2.10;;;26.80;99.90;;;;;;5030685;28;20120;-80
2022/06/29 11:02:55;;;;;;;5.28;1.95;;;26.70;99.90;;;;;;5032737;28;20583;-80
2022/06/29 11:05:21;;;;;;;6.13;2.13;;;26.70;99.90;;;;;;5018275;28;20072;-81
2022/06/29 11:13:23;;;;;;;4.97;1.63;;;26.70;99.90;;;;;;5071241;28;20076;-80
2022/06/29 11:15:54;;;;;;;7.88;2.20;;;26.70;99.90;;;;;;5037851;28;20045;-80
2022/06/29 11:18:32;;;;;;;4.55;1.63;;;26.90;99.90;;;;;;5067660;28;20098;-80
2022/06/29 11:21:03;;;;;;;8.02;2.38;;;26.90;99.90;;;;;;5050986;28;20057;-80
2022/06/29 11:23:33;;;;;;;5.97;1.60;;;27.40;99.90;;;;;;5034865;28;20129;-79
2022/06/29 11:26:02;;;;;;;6.60;1.90;;;27.70;99.90;;;;;;5054643;28;20498;-80
2022/06/29 11:28:33;;;;;;;5.70;2.15;;;27.80;99.90;;;;;;5036521;28;20040;-80
2022/06/29 11:31:11;;;;;;;6.05;2.00;;;27.80;99.90;;;;;;5050787;28;20099;-80
2022/06/29 11:33:47;;;;;;;6.90;2.25;;;27.60;99.90;;;;;;5051046;28;20463;-80
2022/06/29 11:36:18;;;;;;;6.10;1.83;;;27.70;99.90;;;;;;5033485;28;20040;-80
2022/06/29 11:38:49;;;;;;;7.13;2.30;;;27.90;99.90;;;;;;5057943;28;20471;-80
2022/06/29 11:43:03;;;;;;;5.40;1.85;;;28.10;99.60;;;;;;5070603;28;20683;-80
2022/06/29 11:44:21;;;;;;;5.47;1.70;;;28.10;99.70;;;;;;5070448;28;20124;-79
2022/06/29 11:46:47;;;;;;;6.45;1.95;;;28.10;99.90;;;;;;5038344;28;20394;-81
2022/06/29 11:49:36;;;;;;;5.25;1.88;;;27.90;99.90;;;;;;5037768;28;20044;-81
2022/06/29 11:52:05;;;;;;;6.30;2.08;;;27.80;99.50;;;;;;5056520;28;20044;-80
2022/06/29 11:54:36;;;;;;;6.55;2.00;;;27.80;99.10;;;;;;5052976;28;20044;-80
2022/06/29 11:57:12;;;;;;;6.00;1.92;;;27.80;99.00;;;;;;5001188;28;20380;-79
2022/06/29 11:59:39;;;;;;;5.22;2.10;;;27.90;98.30;;;;;;5050452;28;20104;-80
2022/06/29 12:02:06;;;;;;;8.05;2.10;;;28.00;98.50;;;;;;5033837;28;20395;-80
2022/06/29 12:04:34;;;;;;;5.63;2.10;;;28.00;98.60;;;;;;5017680;28;20410;-80
2022/06/29 12:07:04;;;;;;;4.80;1.90;;;27.90;98.30;;;;;;5041638;28;20048;-80
2022/06/29 12:09:30;;;;;;;7.07;2.10;;;27.80;98.90;;;;;;5047211;28;20468;-80
2022/06/29 12:11:56;;;;;;;6.22;2.33;;;27.80;98.70;;;;;;5000745;28;20040;-81
2022/06/29 12:14:21;;;;;;;8.80;2.33;;;27.80;98.80;;;;;;5033166;28;20171;-81
2022/06/29 12:16:47;;;;;;;6.55;2.22;;;27.60;98.30;;;;;;5049585;28;20406;-80
2022/06/29 12:19:13;;;;;;;5.45;1.98;;;27.60;98.90;;;;;;5016960;28;20163;-80
2022/06/29 12:21:38;;;;;;;6.75;2.28;;;27.50;99.20;;;;;;5016537;28;20037;-80
2022/06/29 12:24:04;;;;;;;6.38;2.17;;;27.50;99.40;;;;;;5017049;28;20037;-80
2022/06/29 12:26:30;;;;;;;5.85;2.20;;;27.50;99.70;;;;;;5032538;28;20044;-81
2022/06/29 12:28:56;;;;;;;5.40;2.00;;;27.50;99.70;;;;;;5016783;28;20048;-80
2022/06/29 12:31:21;;;;;;;4.43;1.90;;;27.70;99.50;;;;;;5049746;28;20127;-80
2022/06/29 12:33:47;;;;;;;6.35;2.10;;;27.70;99.60;;;;;;5016777;28;20419;-80
2022/06/29 12:36:13;;;;;;;6.00;2.30;;;27.80;99.20;;;;;;5032418;28;20094;-81
2022/06/29 12:38:39;;;;;;;5.88;2.40;;;28.00;99.40;;;;;;5049634;28;20051;-80
2022/06/29 12:41:04;;;;;;;7.70;2.60;;;28.10;99.40;;;;;;5032796;28;20041;-80
2022/06/29 12:43:30;;;;;;;6.43;2.40;;;28.20;99.50;;;;;;5049753;28;20487;-82
2022/06/29 12:45:56;;;;;;;6.20;2.50;;;28.40;99.40;;;;;;4999964;28;20033;-80
2022/06/29 12:48:22;;;;;;;7.65;2.63;;;28.40;99.10;;;;;;5010707;28;20482;-81
2022/06/29 12:50:48;;;;;;;8.20;2.50;;;28.30;99.10;;;;;;5052279;28;20054;-81
2022/06/29 12:53:14;;;;;;;6.35;2.50;;;28.40;99.10;;;;;;5036542;28;20037;-80
2022/06/29 12:55:40;;;;;;;7.25;2.67;;;28.70;99.10;;;;;;5035870;28;20483;-81
2022/06/29 12:58:06;;;;;;;7.03;2.70;;;28.90;98.60;;;;;;5036104;28;20036;-81
2022/06/29 13:00:33;;;;;;;5.57;2.40;;;29.00;98.10;;;;;;5035787;28;20086;-80
2022/06/29 13:02:58;;;;;;;7.53;2.83;;;29.10;98.50;;;;;;5052236;28;20068;-81
2022/06/29 13:05:24;;;;;;;8.57;2.92;;;29.30;98.50;;;;;;5052732;28;20702;-80
2022/06/29 13:07:50;;;;;;;7.57;2.80;;;29.30;98.10;;;;;;5019126;28;20195;-80
2022/06/29 13:10:16;;;;;;;8.43;3.10;;;29.50;98.70;;;;;;5052479;28;20068;-79